sensor_id;sensor_type;location;lat;lon;timestamp;pressure;altitude;pressure_sealevel;temperature;humidity
30949;BME280;17637;51.984;21.208;2022-10-31T00:01:17;100657.22;;;8.03;75.61
30949;BME280;17637;51.984;21.208;2022-10-31T00:03:44;100495.66;;;7.03;75.53
30949;BME280;17637;51.984;21.208;2022-10-31T00:06:11;100566.38;;;7.32;75.72
30949;BME280;17637;51.984;21.208;2022-10-31T00:08:38;100512.06;;;7.09;76.24
30949;BME280;17637;51.984;21.208;2022-10-31T00:11:09;100504.19;;;7.12;75.49
30949;BME280;17637;51.984;21.208;2022-10-31T00:13:36;100445.91;;;6.69;75.39
30949;BME280;17637;51.984;21.208;2022-10-31T00:16:04;100651.25;;;7.96;75.72
30949;BME280;17637;51.984;21.208;2022-10-31T00:18:32;100178.16;;;4.97;75.94
30949;BME280;17637;51.984;21.208;2022-10-31T00:21:03;100236.59;;;5.26;75.45
30949;BME280;17637;51.984;21.208;2022-10-31T00:23:30;100610.19;;;7.59;76.42
30949;BME280;17637;51.984;21.208;2022-10-31T00:26:01;100025.00;;;3.72;75.49
30949;BME280;17637;51.984;21.208;2022-10-31T00:28:29;100132.00;;;4.54;75.74
30949;BME280;17637;51.984;21.208;2022-10-31T00:31:03;100552.38;;;7.39;75.76
30949;BME280;17637;51.984;21.208;2022-10-31T00:33:33;100654.81;;;7.92;75.94
30949;BME280;17637;51.984;21.208;2022-10-31T00:36:00;100637.72;;;7.76;76.12
30949;BME280;17637;51.984;21.208;2022-10-31T00:38:27;100492.25;;;7.00;75.88
30949;BME280;17637;51.984;21.208;2022-10-31T00:40:54;99989.41;;;3.91;75.11
30949;BME280;17637;51.984;21.208;2022-10-31T00:43:21;100486.84;;;6.56;75.17
30949;BME280;17637;51.984;21.208;2022-10-31T00:45:49;100399.88;;;6.17;75.21
30949;BME280;17637;51.984;21.208;2022-10-31T00:48:16;100649.19;;;7.65;75.91
30949;BME280;17637;51.984;21.208;2022-10-31T00:50:43;99876.28;;;2.30;75.59
30949;BME280;17637;51.984;21.208;2022-10-31T00:53:10;99088.19;;;-1.77;75.33
30949;BME280;17637;51.984;21.208;2022-10-31T00:55:37;99639.72;;;1.04;75.69
30949;BME280;17637;51.984;21.208;2022-10-31T00:58:04;100636.19;;;7.62;76.12
30949;BME280;17637;51.984;21.208;2022-10-31T01:00:31;100406.72;;;6.23;75.95
30949;BME280;17637;51.984;21.208;2022-10-31T01:02:58;100416.53;;;6.04;76.41
30949;BME280;17637;51.984;21.208;2022-10-31T01:05:26;100417.94;;;6.28;76.95
30949;BME280;17637;51.984;21.208;2022-10-31T01:07:53;100658.63;;;7.71;77.25
30949;BME280;17637;51.984;21.208;2022-10-31T01:10:20;100396.38;;;6.18;77.10
30949;BME280;17637;51.984;21.208;2022-10-31T01:12:48;100538.03;;;7.12;76.81
30949;BME280;17637;51.984;21.208;2022-10-31T01:15:19;100654.97;;;7.81;76.56
30949;BME280;17637;51.984;21.208;2022-10-31T01:17:49;100657.72;;;7.74;76.33
30949;BME280;17637;51.984;21.208;2022-10-31T01:20:16;100663.06;;;7.67;76.40
30949;BME280;17637;51.984;21.208;2022-10-31T01:22:43;100645.19;;;7.44;75.94
30949;BME280;17637;51.984;21.208;2022-10-31T01:25:11;99517.16;;;0.62;75.31
30949;BME280;17637;51.984;21.208;2022-10-31T01:27:38;100616.78;;;7.29;75.60
30949;BME280;17637;51.984;21.208;2022-10-31T01:30:05;100648.34;;;7.65;75.23
30949;BME280;17637;51.984;21.208;2022-10-31T01:32:33;100433.59;;;6.23;75.21
30949;BME280;17637;51.984;21.208;2022-10-31T01:35:00;100143.53;;;4.32;75.25
30949;BME280;17637;51.984;21.208;2022-10-31T01:37:27;99417.19;;;-0.13;75.25
30949;BME280;17637;51.984;21.208;2022-10-31T01:39:54;99673.69;;;1.63;75.39
30949;BME280;17637;51.984;21.208;2022-10-31T01:42:22;100670.25;;;7.52;76.87
30949;BME280;17637;51.984;21.208;2022-10-31T01:45:01;100669.41;;;7.50;77.14
30949;BME280;17637;51.984;21.208;2022-10-31T01:47:36;100236.97;;;4.95;76.61
30949;BME280;17637;51.984;21.208;2022-10-31T01:50:11;100704.84;;;7.61;76.72
30949;BME280;17637;51.984;21.208;2022-10-31T01:52:47;100674.56;;;7.53;76.43
30949;BME280;17637;51.984;21.208;2022-10-31T01:55:26;100673.84;;;7.43;76.60
30949;BME280;17637;51.984;21.208;2022-10-31T01:57:59;100497.66;;;6.30;76.21
30949;BME280;17637;51.984;21.208;2022-10-31T02:00:29;100534.75;;;6.42;75.68
30949;BME280;17637;51.984;21.208;2022-10-31T02:02:56;99463.38;;;0.11;75.19
30949;BME280;17637;51.984;21.208;2022-10-31T02:05:26;100336.88;;;5.34;75.39
30949;BME280;17637;51.984;21.208;2022-10-31T02:07:59;100673.38;;;7.16;75.65
30949;BME280;17637;51.984;21.208;2022-10-31T02:10:30;100681.06;;;7.27;75.84
30949;BME280;17637;51.984;21.208;2022-10-31T02:13:01;100259.09;;;4.51;75.53
30949;BME280;17637;51.984;21.208;2022-10-31T02:15:29;100731.44;;;7.24;75.79
30949;BME280;17637;51.984;21.208;2022-10-31T02:17:57;99571.53;;;0.05;74.86
30949;BME280;17637;51.984;21.208;2022-10-31T02:20:29;100681.19;;;7.16;75.61
30949;BME280;17637;51.984;21.208;2022-10-31T02:23:10;100679.59;;;7.06;76.16
30949;BME280;17637;51.984;21.208;2022-10-31T02:37:27;100680.91;;;6.76;79.48
30949;BME280;17637;51.984;21.208;2022-10-31T02:42:38;100682.31;;;7.00;78.67
30949;BME280;17637;51.984;21.208;2022-10-31T02:47:48;100531.78;;;6.01;76.80
30949;BME280;17637;51.984;21.208;2022-10-31T02:52:43;100590.31;;;6.37;76.75
30949;BME280;17637;51.984;21.208;2022-10-31T02:55:11;100678.03;;;6.94;78.68
30949;BME280;17637;51.984;21.208;2022-10-31T02:57:40;100720.53;;;6.98;77.73
30949;BME280;17637;51.984;21.208;2022-10-31T03:00:09;99559.41;;;0.29;76.93
30949;BME280;17637;51.984;21.208;2022-10-31T03:10:59;100681.50;;;6.95;75.68
30949;BME280;17637;51.984;21.208;2022-10-31T03:13:47;100683.34;;;6.87;75.98
30949;BME280;17637;51.984;21.208;2022-10-31T03:16:47;100658.44;;;6.69;76.90
30949;BME280;17637;51.984;21.208;2022-10-31T03:19:29;100429.59;;;5.22;76.34
30949;BME280;17637;51.984;21.208;2022-10-31T03:22:10;100662.91;;;6.56;75.81
30949;BME280;17637;51.984;21.208;2022-10-31T03:24:41;100692.06;;;6.82;75.99
30949;BME280;17637;51.984;21.208;2022-10-31T03:27:12;100708.53;;;6.85;76.34
30949;BME280;17637;51.984;21.208;2022-10-31T03:29:43;100538.19;;;5.69;75.93
30949;BME280;17637;51.984;21.208;2022-10-31T03:32:20;100692.97;;;6.80;76.12
30949;BME280;17637;51.984;21.208;2022-10-31T03:34:49;100664.75;;;6.48;75.97
30949;BME280;17637;51.984;21.208;2022-10-31T03:37:20;100699.03;;;6.82;75.96
30949;BME280;17637;51.984;21.208;2022-10-31T03:39:49;100582.88;;;6.05;76.26
30949;BME280;17637;51.984;21.208;2022-10-31T03:42:28;100634.59;;;6.33;76.66
30949;BME280;17637;51.984;21.208;2022-10-31T03:45:01;100702.63;;;6.70;76.49
30949;BME280;17637;51.984;21.208;2022-10-31T03:47:29;100668.44;;;6.27;77.05
30949;BME280;17637;51.984;21.208;2022-10-31T03:49:56;100496.38;;;5.07;77.24
30949;BME280;17637;51.984;21.208;2022-10-31T03:52:39;100720.91;;;6.66;77.60
30949;BME280;17637;51.984;21.208;2022-10-31T03:55:16;100218.53;;;3.51;78.13
30949;BME280;17637;51.984;21.208;2022-10-31T04:00:35;100602.06;;;5.90;78.74
30949;BME280;17637;51.984;21.208;2022-10-31T04:03:15;100346.47;;;4.44;77.33
30949;BME280;17637;51.984;21.208;2022-10-31T04:05:46;100350.09;;;4.23;77.00
30949;BME280;17637;51.984;21.208;2022-10-31T04:08:20;100674.63;;;6.16;77.52
30949;BME280;17637;51.984;21.208;2022-10-31T04:10:51;100718.47;;;6.49;77.54
30949;BME280;17637;51.984;21.208;2022-10-31T04:13:24;100446.44;;;4.84;77.27
30949;BME280;17637;51.984;21.208;2022-10-31T04:15:54;100611.88;;;5.62;77.39
30949;BME280;17637;51.984;21.208;2022-10-31T04:18:25;100722.84;;;6.50;76.81
30949;BME280;17637;51.984;21.208;2022-10-31T04:21:06;100723.72;;;6.46;76.59
30949;BME280;17637;51.984;21.208;2022-10-31T04:23:35;100402.53;;;4.56;76.24
30949;BME280;17637;51.984;21.208;2022-10-31T04:26:03;100694.59;;;6.13;76.45
30949;BME280;17637;51.984;21.208;2022-10-31T04:28:30;100002.06;;;2.22;76.01
30949;BME280;17637;51.984;21.208;2022-10-31T04:30:59;100400.22;;;4.24;76.52
30949;BME280;17637;51.984;21.208;2022-10-31T04:33:26;100617.88;;;5.67;76.57
30949;BME280;17637;51.984;21.208;2022-10-31T04:35:53;100722.06;;;6.40;77.27
30949;BME280;17637;51.984;21.208;2022-10-31T04:38:20;100391.41;;;4.42;77.32
30949;BME280;17637;51.984;21.208;2022-10-31T04:40:47;100686.06;;;5.98;78.24
30949;BME280;17637;51.984;21.208;2022-10-31T04:43:14;100541.28;;;5.19;78.67
30949;BME280;17637;51.984;21.208;2022-10-31T04:45:41;100457.00;;;4.58;80.28
30949;BME280;17637;51.984;21.208;2022-10-31T04:48:08;100555.88;;;5.29;80.00
30949;BME280;17637;51.984;21.208;2022-10-31T04:50:35;100365.66;;;4.23;80.06
30949;BME280;17637;51.984;21.208;2022-10-31T04:53:02;100604.16;;;5.54;78.50
30949;BME280;17637;51.984;21.208;2022-10-31T04:55:29;100594.78;;;5.37;79.78
30949;BME280;17637;51.984;21.208;2022-10-31T04:57:57;100479.19;;;4.94;81.29
30949;BME280;17637;51.984;21.208;2022-10-31T05:00:25;100723.88;;;6.33;81.69
30949;BME280;17637;51.984;21.208;2022-10-31T05:02:53;100707.41;;;6.30;79.87
30949;BME280;17637;51.984;21.208;2022-10-31T05:05:23;100647.94;;;5.99;78.74
30949;BME280;17637;51.984;21.208;2022-10-31T05:07:52;100730.44;;;6.65;78.67
30949;BME280;17637;51.984;21.208;2022-10-31T05:10:22;100741.72;;;6.67;78.34
30949;BME280;17637;51.984;21.208;2022-10-31T05:12:57;100739.16;;;6.64;78.59
30949;BME280;17637;51.984;21.208;2022-10-31T05:15:27;100612.00;;;5.48;78.96
30949;BME280;17637;51.984;21.208;2022-10-31T05:17:55;100584.06;;;5.73;78.94
30949;BME280;17637;51.984;21.208;2022-10-31T05:20:25;100744.22;;;6.73;79.15
30949;BME280;17637;51.984;21.208;2022-10-31T05:22:54;100223.63;;;3.60;79.14
30949;BME280;17637;51.984;21.208;2022-10-31T05:25:23;100434.38;;;4.77;78.93
30949;BME280;17637;51.984;21.208;2022-10-31T05:27:51;100093.97;;;2.71;78.81
30949;BME280;17637;51.984;21.208;2022-10-31T05:30:28;99625.56;;;-0.03;78.35
30949;BME280;17637;51.984;21.208;2022-10-31T05:32:55;100031.25;;;2.40;78.79
30949;BME280;17637;51.984;21.208;2022-10-31T05:35:28;100643.63;;;5.93;79.15
30949;BME280;17637;51.984;21.208;2022-10-31T05:37:55;100594.41;;;5.78;78.93
30949;BME280;17637;51.984;21.208;2022-10-31T05:40:25;100646.06;;;6.12;78.59
30949;BME280;17637;51.984;21.208;2022-10-31T05:42:54;100608.16;;;5.89;78.57
30949;BME280;17637;51.984;21.208;2022-10-31T05:45:22;100755.44;;;6.81;78.84
30949;BME280;17637;51.984;21.208;2022-10-31T05:47:55;100758.88;;;6.80;79.63
30949;BME280;17637;51.984;21.208;2022-10-31T05:50:25;100776.19;;;6.85;80.02
30949;BME280;17637;51.984;21.208;2022-10-31T05:52:57;99724.03;;;0.81;79.40
30949;BME280;17637;51.984;21.208;2022-10-31T05:55:25;100759.56;;;6.98;79.94
30949;BME280;17637;51.984;21.208;2022-10-31T05:57:54;100495.13;;;5.47;80.03
30949;BME280;17637;51.984;21.208;2022-10-31T06:00:21;100094.56;;;3.11;79.64
30949;BME280;17637;51.984;21.208;2022-10-31T06:02:48;100563.94;;;5.91;79.86
30949;BME280;17637;51.984;21.208;2022-10-31T06:05:15;100770.63;;;7.15;79.98
30949;BME280;17637;51.984;21.208;2022-10-31T06:07:43;100626.31;;;5.91;79.72
30949;BME280;17637;51.984;21.208;2022-10-31T06:10:10;100444.50;;;5.04;80.49
30949;BME280;17637;51.984;21.208;2022-10-31T06:12:37;100573.66;;;5.75;80.60
30949;BME280;17637;51.984;21.208;2022-10-31T06:15:05;100796.75;;;7.09;80.86
30949;BME280;17637;51.984;21.208;2022-10-31T06:17:33;100678.66;;;6.44;80.40
30949;BME280;17637;51.984;21.208;2022-10-31T06:20:01;100795.88;;;7.09;79.99
30949;BME280;17637;51.984;21.208;2022-10-31T06:22:28;100073.13;;;2.98;79.53
30949;BME280;17637;51.984;21.208;2022-10-31T06:24:55;100464.09;;;5.34;79.41
30949;BME280;17637;51.984;21.208;2022-10-31T06:27:23;100443.00;;;4.77;79.72
30949;BME280;17637;51.984;21.208;2022-10-31T06:29:51;100441.16;;;4.90;79.76
30949;BME280;17637;51.984;21.208;2022-10-31T06:32:18;100489.84;;;5.56;80.20
30949;BME280;17637;51.984;21.208;2022-10-31T06:34:45;100285.16;;;4.40;79.75
30949;BME280;17637;51.984;21.208;2022-10-31T06:37:15;100749.69;;;7.23;79.83
30949;BME280;17637;51.984;21.208;2022-10-31T06:39:42;100159.56;;;3.86;79.23
30949;BME280;17637;51.984;21.208;2022-10-31T06:42:09;100611.78;;;6.53;79.25
30949;BME280;17637;51.984;21.208;2022-10-31T06:44:36;100757.38;;;7.34;79.13
30949;BME280;17637;51.984;21.208;2022-10-31T06:47:03;100576.19;;;6.54;78.92
30949;BME280;17637;51.984;21.208;2022-10-31T06:49:32;100586.59;;;6.57;79.08
30949;BME280;17637;51.984;21.208;2022-10-31T06:51:59;100780.66;;;7.44;78.93
30949;BME280;17637;51.984;21.208;2022-10-31T06:54:26;99743.44;;;1.54;78.37
30949;BME280;17637;51.984;21.208;2022-10-31T06:56:53;100772.38;;;7.77;79.10
30949;BME280;17637;51.984;21.208;2022-10-31T06:59:20;100480.75;;;5.97;78.47
30949;BME280;17637;51.984;21.208;2022-10-31T07:01:47;100230.53;;;4.54;78.66
30949;BME280;17637;51.984;21.208;2022-10-31T07:04:14;100416.72;;;5.88;79.15
30949;BME280;17637;51.984;21.208;2022-10-31T07:06:41;100746.41;;;7.71;78.91
30949;BME280;17637;51.984;21.208;2022-10-31T07:09:08;100328.34;;;5.23;78.49
30949;BME280;17637;51.984;21.208;2022-10-31T07:11:35;100552.41;;;6.81;78.88
30949;BME280;17637;51.984;21.208;2022-10-31T07:14:02;100808.91;;;8.29;78.73
30949;BME280;17637;51.984;21.208;2022-10-31T07:16:29;100750.31;;;7.98;78.73
30949;BME280;17637;51.984;21.208;2022-10-31T07:18:56;100135.72;;;4.35;78.68
30949;BME280;17637;51.984;21.208;2022-10-31T07:21:23;100519.66;;;6.67;79.06
30949;BME280;17637;51.984;21.208;2022-10-31T07:23:50;100034.34;;;3.88;78.47
30949;BME280;17637;51.984;21.208;2022-10-31T07:26:17;100630.50;;;7.39;79.06
30949;BME280;17637;51.984;21.208;2022-10-31T07:28:46;100792.88;;;8.52;78.43
30949;BME280;17637;51.984;21.208;2022-10-31T07:31:14;100538.28;;;6.96;78.19
30949;BME280;17637;51.984;21.208;2022-10-31T07:33:41;100689.47;;;7.99;78.26
30949;BME280;17637;51.984;21.208;2022-10-31T07:36:08;100444.41;;;6.54;78.42
30949;BME280;17637;51.984;21.208;2022-10-31T07:38:35;100617.06;;;7.09;78.49
30949;BME280;17637;51.984;21.208;2022-10-31T07:41:02;100781.38;;;8.63;78.70
30949;BME280;17637;51.984;21.208;2022-10-31T07:43:29;100376.78;;;5.95;78.26
30949;BME280;17637;51.984;21.208;2022-10-31T07:45:56;100505.38;;;6.94;77.71
30949;BME280;17637;51.984;21.208;2022-10-31T07:48:23;100136.44;;;4.46;77.71
30949;BME280;17637;51.984;21.208;2022-10-31T07:50:50;100509.09;;;7.29;78.07
30949;BME280;17637;51.984;21.208;2022-10-31T07:53:18;100515.28;;;7.24;78.14
30949;BME280;17637;51.984;21.208;2022-10-31T07:55:45;100391.25;;;6.69;78.29
30949;BME280;17637;51.984;21.208;2022-10-31T07:58:16;100681.34;;;8.61;78.53
30949;BME280;17637;51.984;21.208;2022-10-31T08:00:45;100467.09;;;7.47;77.96
30949;BME280;17637;51.984;21.208;2022-10-31T08:03:15;100393.19;;;7.06;77.50
30949;BME280;17637;51.984;21.208;2022-10-31T08:05:43;100663.00;;;8.65;77.64
30949;BME280;17637;51.984;21.208;2022-10-31T08:08:13;100802.06;;;9.59;78.15
30949;BME280;17637;51.984;21.208;2022-10-31T08:10:40;100530.31;;;8.03;78.28
30949;BME280;17637;51.984;21.208;2022-10-31T08:13:12;100655.03;;;8.71;77.88
30949;BME280;17637;51.984;21.208;2022-10-31T08:15:40;100778.38;;;9.26;78.22
30949;BME280;17637;51.984;21.208;2022-10-31T08:18:16;100784.19;;;9.41;78.02
30949;BME280;17637;51.984;21.208;2022-10-31T08:20:43;100617.50;;;8.77;77.75
30949;BME280;17637;51.984;21.208;2022-10-31T08:23:11;100806.47;;;9.94;78.56
30949;BME280;17637;51.984;21.208;2022-10-31T08:25:39;100387.03;;;7.55;78.13
30949;BME280;17637;51.984;21.208;2022-10-31T08:28:08;100715.72;;;9.62;78.06
30949;BME280;17637;51.984;21.208;2022-10-31T08:30:37;100850.16;;;10.30;78.19
30949;BME280;17637;51.984;21.208;2022-10-31T08:33:08;100405.03;;;7.67;78.28
30949;BME280;17637;51.984;21.208;2022-10-31T08:35:36;99800.50;;;4.33;77.65
30949;BME280;17637;51.984;21.208;2022-10-31T08:38:03;100813.03;;;10.48;78.61
30949;BME280;17637;51.984;21.208;2022-10-31T08:40:32;100814.53;;;10.58;78.69
30949;BME280;17637;51.984;21.208;2022-10-31T08:43:03;100738.66;;;10.21;78.49
30949;BME280;17637;51.984;21.208;2022-10-31T08:45:32;100666.31;;;9.86;77.66
30949;BME280;17637;51.984;21.208;2022-10-31T08:48:01;100824.38;;;10.81;78.11
30949;BME280;17637;51.984;21.208;2022-10-31T08:50:31;100449.69;;;8.70;76.99
30949;BME280;17637;51.984;21.208;2022-10-31T08:53:09;100774.34;;;10.59;77.48
30949;BME280;17637;51.984;21.208;2022-10-31T08:55:38;100507.09;;;9.08;77.24
30949;BME280;17637;51.984;21.208;2022-10-31T08:58:09;100680.88;;;9.96;77.47
30949;BME280;17637;51.984;21.208;2022-10-31T09:00:37;100798.38;;;10.75;77.04
30949;BME280;17637;51.984;21.208;2022-10-31T09:03:10;100612.50;;;9.77;76.67
30949;BME280;17637;51.984;21.208;2022-10-31T09:05:38;99188.69;;;1.56;75.62
30949;BME280;17637;51.984;21.208;2022-10-31T09:08:06;100827.97;;;11.40;76.66
30949;BME280;17637;51.984;21.208;2022-10-31T09:10:41;100833.16;;;11.43;76.52
30949;BME280;17637;51.984;21.208;2022-10-31T09:13:11;100835.63;;;11.47;76.54
30949;BME280;17637;51.984;21.208;2022-10-31T09:15:40;100852.72;;;11.61;76.08
30949;BME280;17637;51.984;21.208;2022-10-31T09:18:08;100514.06;;;9.74;75.93
30949;BME280;17637;51.984;21.208;2022-10-31T09:20:37;100787.81;;;11.08;75.70
30949;BME280;17637;51.984;21.208;2022-10-31T09:23:09;100647.69;;;10.32;76.57
30949;BME280;17637;51.984;21.208;2022-10-31T09:25:37;100778.44;;;11.30;76.09
30949;BME280;17637;51.984;21.208;2022-10-31T09:28:06;100584.22;;;10.22;75.70
30949;BME280;17637;51.984;21.208;2022-10-31T09:30:34;100840.13;;;11.72;75.75
30949;BME280;17637;51.984;21.208;2022-10-31T09:33:04;100834.75;;;11.77;75.83
30949;BME280;17637;51.984;21.208;2022-10-31T09:35:32;100676.63;;;10.87;75.34
30949;BME280;17637;51.984;21.208;2022-10-31T09:38:01;100837.97;;;11.85;76.09
30949;BME280;17637;51.984;21.208;2022-10-31T09:40:35;100716.59;;;10.95;75.46
30949;BME280;17637;51.984;21.208;2022-10-31T09:51:28;100168.00;;;7.61;74.77
30949;BME280;17637;51.984;21.208;2022-10-31T09:56:32;100605.13;;;10.85;74.62
30949;BME280;17637;51.984;21.208;2022-10-31T09:59:01;100520.13;;;10.37;74.95
30949;BME280;17637;51.984;21.208;2022-10-31T10:04:43;100700.69;;;11.58;75.13
30949;BME280;17637;51.984;21.208;2022-10-31T10:10:20;100836.13;;;12.17;75.24
30949;BME280;17637;51.984;21.208;2022-10-31T10:30:02;100485.31;;;10.63;74.93
30949;BME280;17637;51.984;21.208;2022-10-31T10:32:42;100823.94;;;12.67;75.16
30949;BME280;17637;51.984;21.208;2022-10-31T10:37:50;100607.22;;;11.55;74.37
30949;BME280;17637;51.984;21.208;2022-10-31T10:40:21;100615.91;;;11.57;74.02
30949;BME280;17637;51.984;21.208;2022-10-31T10:46:08;100805.28;;;12.98;74.25
30949;BME280;17637;51.984;21.208;2022-10-31T10:49:32;100814.00;;;13.00;74.79
30949;BME280;17637;51.984;21.208;2022-10-31T10:57:56;100813.63;;;13.11;75.23
30949;BME280;17637;51.984;21.208;2022-10-31T11:02:55;100784.38;;;12.95;73.98
30949;BME280;17637;51.984;21.208;2022-10-31T11:07:51;100400.88;;;10.82;73.87
30949;BME280;17637;51.984;21.208;2022-10-31T11:10:18;100697.38;;;12.56;74.11
30949;BME280;17637;51.984;21.208;2022-10-31T11:12:59;100803.00;;;13.38;73.48
30949;BME280;17637;51.984;21.208;2022-10-31T11:15:28;100683.78;;;12.68;73.11
30949;BME280;17637;51.984;21.208;2022-10-31T11:17:57;100379.28;;;11.00;73.27
30949;BME280;17637;51.984;21.208;2022-10-31T11:20:33;100557.19;;;12.11;73.13
30949;BME280;17637;51.984;21.208;2022-10-31T11:23:16;100804.69;;;13.62;73.37
30949;BME280;17637;51.984;21.208;2022-10-31T11:25:55;100579.84;;;12.38;72.55
30949;BME280;17637;51.984;21.208;2022-10-31T11:28:23;100803.41;;;13.73;72.21
30949;BME280;17637;51.984;21.208;2022-10-31T11:30:55;100486.88;;;11.71;71.62
30949;BME280;17637;51.984;21.208;2022-10-31T11:33:29;100796.19;;;13.78;72.11
30949;BME280;17637;51.984;21.208;2022-10-31T11:35:57;100798.59;;;13.84;71.53
30949;BME280;17637;51.984;21.208;2022-10-31T11:38:41;100685.47;;;12.46;71.08
30949;BME280;17637;51.984;21.208;2022-10-31T11:41:17;100792.38;;;13.85;71.35
30949;BME280;17637;51.984;21.208;2022-10-31T11:43:49;100786.09;;;13.89;70.97
30949;BME280;17637;51.984;21.208;2022-10-31T11:46:25;100722.44;;;13.57;70.79
30949;BME280;17637;51.984;21.208;2022-10-31T11:48:55;100470.91;;;11.79;70.74
30949;BME280;17637;51.984;21.208;2022-10-31T11:51:30;100584.16;;;12.62;70.60
30949;BME280;17637;51.984;21.208;2022-10-31T11:53:59;100070.50;;;9.20;70.00
30949;BME280;17637;51.984;21.208;2022-10-31T11:56:40;99920.25;;;8.83;69.56
30949;BME280;17637;51.984;21.208;2022-10-31T11:59:28;100788.31;;;14.00;70.22
30949;BME280;17637;51.984;21.208;2022-10-31T12:01:58;100513.47;;;12.34;70.03
30949;BME280;17637;51.984;21.208;2022-10-31T12:04:42;100700.97;;;13.46;69.89
30949;BME280;17637;51.984;21.208;2022-10-31T12:07:11;100746.13;;;13.79;70.38
30949;BME280;17637;51.984;21.208;2022-10-31T12:09:38;100608.72;;;13.07;69.99
30949;BME280;17637;51.984;21.208;2022-10-31T12:23:19;100779.97;;;14.31;69.27
30949;BME280;17637;51.984;21.208;2022-10-31T12:28:56;100777.25;;;14.33;68.72
30949;BME280;17637;51.984;21.208;2022-10-31T12:46:33;100785.13;;;14.34;68.82
30949;BME280;17637;51.984;21.208;2022-10-31T12:57:35;100773.84;;;14.31;70.23
30949;BME280;17637;51.984;21.208;2022-10-31T13:00:10;100668.53;;;13.68;70.27
30949;BME280;17637;51.984;21.208;2022-10-31T13:02:50;100667.19;;;13.57;70.74
30949;BME280;17637;51.984;21.208;2022-10-31T13:08:04;100424.53;;;12.03;70.80
30949;BME280;17637;51.984;21.208;2022-10-31T13:10:43;100770.34;;;14.10;71.32
30949;BME280;17637;51.984;21.208;2022-10-31T13:13:16;100774.38;;;13.96;71.70
30949;BME280;17637;51.984;21.208;2022-10-31T13:15:51;100767.53;;;13.92;71.72
30949;BME280;17637;51.984;21.208;2022-10-31T13:18:28;99973.84;;;8.67;71.17
30949;BME280;17637;51.984;21.208;2022-10-31T13:20:59;100450.78;;;12.03;71.75
30949;BME280;17637;51.984;21.208;2022-10-31T13:23:33;100426.91;;;11.85;71.63
30949;BME280;17637;51.984;21.208;2022-10-31T13:26:28;99606.44;;;6.67;71.49
30949;BME280;17637;51.984;21.208;2022-10-31T13:29:24;100774.09;;;13.82;72.55
30949;BME280;17637;51.984;21.208;2022-10-31T13:31:59;99662.44;;;7.08;71.95
30949;BME280;17637;51.984;21.208;2022-10-31T13:34:31;99966.72;;;8.72;72.10
30949;BME280;17637;51.984;21.208;2022-10-31T13:40:14;100241.03;;;9.81;72.07
30949;BME280;17637;51.984;21.208;2022-10-31T13:43:01;100780.22;;;13.60;73.00
30949;BME280;17637;51.984;21.208;2022-10-31T13:45:32;99830.03;;;7.93;72.86
30949;BME280;17637;51.984;21.208;2022-10-31T13:48:01;100250.84;;;10.27;72.84
30949;BME280;17637;51.984;21.208;2022-10-31T13:50:31;99984.28;;;8.67;73.05
30949;BME280;17637;51.984;21.208;2022-10-31T13:55:47;100780.50;;;13.31;74.12
30949;BME280;17637;51.984;21.208;2022-10-31T13:58:27;100770.97;;;13.27;74.38
30949;BME280;17637;51.984;21.208;2022-10-31T14:01:20;99791.06;;;7.32;74.00
30949;BME280;17637;51.984;21.208;2022-10-31T14:06:52;100608.19;;;12.04;75.50
30949;BME280;17637;51.984;21.208;2022-10-31T14:09:28;100797.06;;;13.08;75.27
30949;BME280;17637;51.984;21.208;2022-10-31T14:11:59;100784.19;;;13.02;75.43
30949;BME280;17637;51.984;21.208;2022-10-31T14:14:32;100743.41;;;12.66;75.39
30949;BME280;17637;51.984;21.208;2022-10-31T14:17:02;100615.91;;;11.82;76.16
30949;BME280;17637;51.984;21.208;2022-10-31T14:19:29;100634.81;;;11.93;76.03
30949;BME280;17637;51.984;21.208;2022-10-31T14:21:56;100321.88;;;9.88;76.04
30949;BME280;17637;51.984;21.208;2022-10-31T14:26:55;100440.88;;;10.60;77.24
30949;BME280;17637;51.984;21.208;2022-10-31T14:29:28;99579.41;;;5.44;76.86
30949;BME280;17637;51.984;21.208;2022-10-31T14:34:34;100773.59;;;12.54;77.24
30949;BME280;17637;51.984;21.208;2022-10-31T14:51:02;100515.78;;;10.66;77.84
30949;BME280;17637;51.984;21.208;2022-10-31T14:56:21;100715.72;;;11.79;78.04
30949;BME280;17637;51.984;21.208;2022-10-31T14:58:50;100765.72;;;12.03;78.28
30949;BME280;17637;51.984;21.208;2022-10-31T15:01:28;100328.06;;;9.27;78.13
30949;BME280;17637;51.984;21.208;2022-10-31T15:04:12;100759.19;;;11.88;78.48
30949;BME280;17637;51.984;21.208;2022-10-31T15:09:28;100332.72;;;9.16;78.73
30949;BME280;17637;51.984;21.208;2022-10-31T15:11:59;100683.50;;;11.21;78.87
30949;BME280;17637;51.984;21.208;2022-10-31T15:14:29;100667.63;;;10.97;79.15
30949;BME280;17637;51.984;21.208;2022-10-31T15:16:59;100437.97;;;9.52;78.78
30949;BME280;17637;51.984;21.208;2022-10-31T15:19:30;100657.88;;;10.73;79.37
30949;BME280;17637;51.984;21.208;2022-10-31T15:22:00;100782.03;;;11.56;80.26
30949;BME280;17637;51.984;21.208;2022-10-31T15:24:33;100615.31;;;10.64;79.95
30949;BME280;17637;51.984;21.208;2022-10-31T15:27:01;100780.03;;;11.64;80.30
30949;BME280;17637;51.984;21.208;2022-10-31T15:29:31;100737.28;;;11.33;80.68
30949;BME280;17637;51.984;21.208;2022-10-31T15:32:00;100771.94;;;11.72;80.77
30949;BME280;17637;51.984;21.208;2022-10-31T15:34:37;99558.88;;;4.18;79.76
30949;BME280;17637;51.984;21.208;2022-10-31T15:37:16;99112.72;;;1.19;79.85
30949;BME280;17637;51.984;21.208;2022-10-31T15:39:46;99358.53;;;3.38;79.84
30949;BME280;17637;51.984;21.208;2022-10-31T15:42:28;100443.78;;;9.93;80.69